createdAt,value
2023-11-12T00:00:56.102Z,93772.98
2023-11-12T00:02:20.151Z,93773.90
2023-11-12T00:03:24.213Z,93784.41
2023-11-12T00:04:27.984Z,93785.47
2023-11-12T00:05:31.499Z,93784.10
2023-11-12T00:06:35.136Z,93782.91
2023-11-12T00:07:38.244Z,93797.70
2023-11-12T00:08:42.044Z,93802.19
2023-11-12T00:09:45.730Z,93807.77
2023-11-12T00:10:49.411Z,93802.09
2023-11-12T00:11:53.128Z,93808.27
2023-11-12T00:12:57.132Z,93807.73
2023-11-12T00:14:01.211Z,93801.10
2023-11-12T00:15:08.294Z,93802.00
2023-11-12T00:16:12.018Z,93806.59
2023-11-12T00:17:17.232Z,93798.23
2023-11-12T00:18:20.826Z,93806.91
2023-11-12T00:19:24.310Z,93814.68
2023-11-12T00:20:28.737Z,93821.19
2023-11-12T00:21:32.413Z,93814.48
2023-11-12T00:22:36.011Z,93811.23
2023-11-12T00:23:39.327Z,93817.77
2023-11-12T00:24:43.346Z,93831.57
2023-11-12T00:25:47.386Z,93824.59
2023-11-12T00:26:51.058Z,93839.84
2023-11-12T00:27:55.247Z,93839.14
2023-11-12T00:28:58.874Z,93837.05
2023-11-12T00:30:03.902Z,93838.02
2023-11-12T00:31:07.800Z,93832.54
2023-11-12T00:32:11.657Z,93845.42
2023-11-12T00:33:15.178Z,93829.38
2023-11-12T00:34:19.164Z,93848.30
2023-11-12T00:35:22.331Z,93852.91
2023-11-12T00:36:26.463Z,93834.34
2023-11-12T00:37:29.892Z,93834.42
2023-11-12T00:38:33.848Z,93841.27
2023-11-12T00:39:37.724Z,93842.13
2023-11-12T00:40:41.454Z,93852.91
2023-11-12T00:41:44.751Z,93845.63
2023-11-12T00:42:48.407Z,93855.71
2023-11-12T00:43:51.986Z,93847.37
2023-11-12T00:44:56.206Z,93837.85
2023-11-12T00:46:00.702Z,93843.55
2023-11-12T00:47:06.045Z,93849.48
2023-11-12T00:48:09.459Z,93857.77
2023-11-12T00:49:13.126Z,93849.83
2023-11-12T00:50:16.916Z,93854.54
2023-11-12T00:51:21.127Z,93850.52
2023-11-12T00:52:24.711Z,93848.86
2023-11-12T00:53:30.608Z,93854.08
2023-11-12T00:54:33.767Z,93862.84
2023-11-12T00:55:37.547Z,93852.70
2023-11-12T00:56:40.726Z,93853.98
2023-11-12T00:57:44.476Z,93862.10
2023-11-12T00:58:48.217Z,93867.21
2023-11-12T00:59:51.494Z,93858.87
2023-11-12T01:00:55.077Z,93858.67
2023-11-12T01:01:59.702Z,93852.91
2023-11-12T01:03:03.638Z,93862.47
2023-11-12T01:04:08.743Z,93861.16
2023-11-12T01:05:13.127Z,93859.84
2023-11-12T01:06:16.975Z,93861.85
2023-11-12T01:07:20.311Z,93861.70
2023-11-12T01:08:23.552Z,93862.60
2023-11-12T01:09:29.236Z,93872.00
2023-11-12T01:10:32.972Z,93875.64
2023-11-12T01:11:38.603Z,93876.21
2023-11-12T01:12:42.426Z,93854.39
2023-11-12T01:13:46.598Z,93858.45
2023-11-12T01:14:50.791Z,93874.28
2023-11-12T01:15:56.556Z,93878.20
2023-11-12T01:17:00.316Z,93872.56
2023-11-12T01:18:05.076Z,93863.52
2023-11-12T01:19:09.534Z,93863.20
2023-11-12T01:20:17.157Z,93875.66
2023-11-12T01:21:21.346Z,93874.95
2023-11-12T01:22:25.124Z,93886.38
2023-11-12T01:23:28.894Z,93875.00
2023-11-12T01:24:32.550Z,93876.38
2023-11-12T01:25:37.126Z,93871.98
2023-11-12T01:26:40.860Z,93874.86
2023-11-12T01:27:44.041Z,93884.76
2023-11-12T01:28:47.987Z,93880.49
2023-11-12T01:29:51.173Z,93881.73
2023-11-12T01:30:55.076Z,93882.02
2023-11-12T01:31:58.703Z,93891.53
2023-11-12T01:33:04.559Z,93883.20
2023-11-12T01:34:08.886Z,93872.09
2023-11-12T01:35:12.533Z,93883.20
2023-11-12T01:36:15.885Z,93877.08
2023-11-12T01:37:19.428Z,93876.89
2023-11-12T01:38:23.088Z,93880.58
2023-11-12T01:39:27.719Z,93878.33
2023-11-12T01:40:36.050Z,93885.25
2023-11-12T01:41:39.314Z,93883.21
2023-11-12T01:42:43.296Z,93880.80
2023-11-12T01:43:46.682Z,93884.11
2023-11-12T01:44:50.386Z,93887.33
2023-11-12T01:45:53.799Z,93890.26
2023-11-12T01:46:57.338Z,93881.85
2023-11-12T01:48:02.089Z,93884.29
2023-11-12T01:49:06.535Z,93883.00
2023-11-12T01:50:13.330Z,93885.09
2023-11-12T01:51:17.544Z,93883.06
2023-11-12T01:52:22.434Z,93872.69
2023-11-12T01:53:27.216Z,93882.52
2023-11-12T01:54:31.922Z,93886.83
2023-11-12T01:55:35.859Z,93886.34
2023-11-12T01:56:40.232Z,93885.64
2023-11-12T01:57:46.320Z,93893.02
2023-11-12T01:58:51.795Z,93886.45
2023-11-12T01:59:55.459Z,93892.33
2023-11-12T02:00:59.383Z,93890.00
2023-11-12T02:02:03.925Z,93882.62
2023-11-12T02:03:10.012Z,93894.52
2023-11-12T02:04:15.431Z,93887.91
2023-11-12T02:05:19.981Z,93885.45
2023-11-12T02:06:25.376Z,93884.21
2023-11-12T02:07:29.339Z,93893.54
2023-11-12T02:08:34.457Z,93885.52
2023-11-12T02:09:38.000Z,93889.63
2023-11-12T02:10:43.536Z,93882.27
2023-11-12T02:11:47.012Z,93883.28
2023-11-12T02:12:50.598Z,93877.79
2023-11-12T02:13:55.486Z,93881.61
2023-11-12T02:14:59.567Z,93887.95
2023-11-12T02:16:03.824Z,93886.82
2023-11-12T02:17:07.684Z,93889.95
2023-11-12T02:18:11.332Z,93886.06
2023-11-12T02:19:25.863Z,93882.05
2023-11-12T02:20:29.477Z,93889.08
2023-11-12T02:21:33.488Z,93898.69
2023-11-12T02:22:37.768Z,93887.64
2023-11-12T02:23:41.335Z,93893.92
2023-11-12T02:24:44.450Z,93889.85
2023-11-12T02:25:48.319Z,93891.47
2023-11-12T02:26:52.311Z,93889.14
2023-11-12T02:27:56.175Z,93880.61
2023-11-12T02:28:59.628Z,93892.61
2023-11-12T02:30:04.185Z,93895.70
2023-11-12T02:31:07.782Z,93888.16
2023-11-12T02:32:11.781Z,93891.34
2023-11-12T02:33:15.373Z,93887.70
2023-11-12T02:34:18.924Z,93889.59
2023-11-12T02:35:22.385Z,93891.75
2023-11-12T02:36:26.888Z,93886.21
2023-11-12T02:37:31.372Z,93888.59
2023-11-12T02:38:35.657Z,93891.08
2023-11-12T02:39:41.959Z,93880.77
2023-11-12T02:40:47.040Z,93895.45
2023-11-12T02:41:50.352Z,93900.77
2023-11-12T02:42:53.732Z,93901.30
2023-11-12T02:43:57.625Z,93890.79
2023-11-12T02:45:01.163Z,93890.16
2023-11-12T02:46:05.976Z,93892.70
2023-11-12T02:47:09.541Z,93896.36
2023-11-12T02:48:13.103Z,93891.20
2023-11-12T02:49:44.969Z,93896.96
2023-11-12T02:50:49.052Z,93908.58
2023-11-12T02:51:52.986Z,93889.08
2023-11-12T02:52:59.031Z,93892.86
2023-11-12T02:54:03.813Z,93887.39
2023-11-12T02:55:09.792Z,93901.21
2023-11-12T02:56:17.608Z,93897.81
2023-11-12T02:57:22.756Z,93904.45
2023-11-12T02:58:27.433Z,93890.63
2023-11-12T02:59:31.292Z,93898.27
2023-11-12T03:00:35.383Z,93907.13
2023-11-12T03:01:39.126Z,93899.63
2023-11-12T03:02:46.084Z,93896.98
2023-11-12T03:03:49.925Z,93905.23
2023-11-12T03:04:53.855Z,93902.27
2023-11-12T03:05:57.142Z,93916.28
2023-11-12T03:07:00.453Z,93912.98
2023-11-12T03:08:05.354Z,93911.80
2023-11-12T03:09:10.232Z,93907.52
2023-11-12T03:10:13.954Z,93903.91
2023-11-12T03:11:18.580Z,93913.80
2023-11-12T03:12:22.407Z,93914.38
2023-11-12T03:13:26.606Z,93906.92
2023-11-12T03:14:30.501Z,93914.14
2023-11-12T03:15:34.763Z,93917.48
2023-11-12T03:16:38.744Z,93921.06
2023-11-12T03:17:44.489Z,93923.60
2023-11-12T03:18:50.499Z,93916.87
2023-11-12T03:19:53.983Z,93916.23
2023-11-12T03:20:58.097Z,93916.23
2023-11-12T03:22:01.368Z,93919.55
2023-11-12T03:23:04.865Z,93919.92
2023-11-12T03:24:09.769Z,93921.29
2023-11-12T03:25:13.344Z,93927.30
2023-11-12T03:26:16.897Z,93915.05
2023-11-12T03:27:20.322Z,93915.80
2023-11-12T03:28:24.039Z,93920.23
2023-11-12T03:29:27.521Z,93915.27
2023-11-12T03:30:31.621Z,93912.75
2023-11-12T03:31:35.067Z,93908.33
2023-11-12T03:32:39.424Z,93909.88
2023-11-12T03:33:43.042Z,93917.08
2023-11-12T03:34:47.103Z,93915.73
2023-11-12T03:35:50.936Z,93908.30
2023-11-12T03:36:54.286Z,93925.89
2023-11-12T03:37:57.602Z,93915.20
2023-11-12T03:39:00.636Z,93914.42
2023-11-12T03:40:06.362Z,93907.33
2023-11-12T03:41:12.776Z,93923.03
2023-11-12T03:42:17.198Z,93912.14
2023-11-12T03:43:20.470Z,93920.67
2023-11-12T03:44:23.911Z,93923.07
2023-11-12T03:45:27.670Z,93916.73
2023-11-12T03:46:31.078Z,93926.44
2023-11-12T03:47:34.833Z,93937.86
2023-11-12T03:48:38.826Z,93929.11
2023-11-12T03:49:42.734Z,93927.99
2023-11-12T03:50:46.284Z,93926.88
2023-11-12T03:51:50.212Z,93929.31
2023-11-12T03:52:53.447Z,93933.83
2023-11-12T03:53:59.452Z,93931.95
2023-11-12T03:55:06.184Z,93939.04
2023-11-12T03:56:09.514Z,93945.60
2023-11-12T03:57:14.890Z,93939.23
2023-11-12T03:58:19.744Z,93931.80
2023-11-12T03:59:23.419Z,93946.77
2023-11-12T04:00:26.827Z,93955.82
2023-11-12T04:01:30.188Z,93947.54
2023-11-12T04:02:33.801Z,93937.91
2023-11-12T04:03:37.678Z,93942.95
2023-11-12T04:04:41.353Z,93958.95
2023-11-12T04:05:45.600Z,93954.01
2023-11-12T04:06:49.699Z,93949.73
2023-11-12T04:07:53.367Z,93956.11
2023-11-12T04:08:56.955Z,93960.98
2023-11-12T04:10:05.900Z,93955.91
2023-11-12T04:11:09.963Z,93961.11
2023-11-12T04:12:13.532Z,93955.09
2023-11-12T04:13:17.702Z,93958.66
2023-11-12T04:14:22.426Z,93955.29
2023-11-12T04:15:26.126Z,93959.04
2023-11-12T04:16:29.870Z,93958.02
2023-11-12T04:17:33.540Z,93954.01
2023-11-12T04:18:37.600Z,93956.75
2023-11-12T04:19:41.446Z,93953.56
2023-11-12T04:20:45.475Z,93967.17
2023-11-12T04:21:49.317Z,93962.90
2023-11-12T04:22:53.186Z,93972.05
2023-11-12T04:23:56.612Z,93975.30
2023-11-12T04:25:00.053Z,93989.25
2023-11-12T04:26:04.973Z,93971.30
2023-11-12T04:27:08.943Z,93974.81
2023-11-12T04:28:12.978Z,93975.48
2023-11-12T04:29:16.641Z,93971.94
2023-11-12T04:30:20.445Z,93976.24
2023-11-12T04:31:24.101Z,93976.38
2023-11-12T04:32:28.565Z,93979.55
2023-11-12T04:33:32.908Z,93969.06
2023-11-12T04:34:36.537Z,93972.42
2023-11-12T04:35:39.930Z,93987.55
2023-11-12T04:36:44.816Z,93993.46
2023-11-12T04:37:48.683Z,93978.80
2023-11-12T04:38:52.585Z,93983.59
2023-11-12T04:39:56.340Z,93977.61
2023-11-12T04:40:59.622Z,93988.80
2023-11-12T04:42:03.515Z,93988.44
2023-11-12T04:43:06.884Z,93990.64
2023-11-12T04:44:10.972Z,93999.36
2023-11-12T04:45:15.328Z,93990.89
2023-11-12T04:46:19.877Z,93997.80
2023-11-12T04:47:25.211Z,93995.76
2023-11-12T04:48:28.595Z,93995.54
2023-11-12T04:49:31.939Z,93998.89
2023-11-12T04:50:36.334Z,93998.34
2023-11-12T04:51:40.254Z,94002.46
2023-11-12T04:52:43.726Z,94008.00
2023-11-12T04:53:48.902Z,94005.95
2023-11-12T04:54:52.645Z,94003.60
2023-11-12T04:55:56.020Z,93998.25
2023-11-12T04:56:59.521Z,93996.73
2023-11-12T04:58:05.024Z,94002.81
2023-11-12T04:59:08.276Z,94008.44
2023-11-12T05:00:14.042Z,94000.80
2023-11-12T05:01:17.661Z,94007.21
2023-11-12T05:02:21.449Z,94001.02
2023-11-12T05:03:25.437Z,94003.92
2023-11-12T05:04:29.145Z,94005.54
2023-11-12T05:05:32.688Z,93999.27
2023-11-12T05:06:36.090Z,94006.95
2023-11-12T05:07:39.834Z,94009.00
2023-11-12T05:08:43.729Z,94000.91
2023-11-12T05:09:47.417Z,94012.41
2023-11-12T05:10:51.332Z,94008.05
2023-11-12T05:11:55.556Z,94004.22
2023-11-12T05:12:58.993Z,94018.33
2023-11-12T05:14:02.471Z,94012.75
2023-11-12T05:15:09.242Z,94015.12
2023-11-12T05:16:12.947Z,94010.49
2023-11-12T05:17:17.071Z,94020.13
2023-11-12T05:18:22.354Z,94024.99
2023-11-12T05:19:25.820Z,94015.15
2023-11-12T05:20:29.387Z,94017.34
2023-11-12T05:21:32.898Z,94019.35
2023-11-12T05:22:36.264Z,94023.43
2023-11-12T05:23:40.352Z,94015.31
2023-11-12T05:24:44.370Z,94014.27
2023-11-12T05:25:48.114Z,94021.80
2023-11-12T05:26:51.694Z,94026.08
2023-11-12T05:27:55.377Z,94025.86
2023-11-12T05:28:59.462Z,94025.23
2023-11-12T05:30:03.031Z,94029.42
2023-11-12T05:31:07.874Z,94040.77
2023-11-12T05:32:11.534Z,94020.43
2023-11-12T05:33:15.272Z,94032.95
2023-11-12T05:34:19.368Z,94033.75
2023-11-12T05:35:23.460Z,94036.84
2023-11-12T05:36:27.366Z,94026.45
2023-11-12T05:37:30.753Z,94045.15
2023-11-12T05:38:34.977Z,94041.48
2023-11-12T05:39:38.669Z,94038.62
2023-11-12T05:40:42.515Z,94038.90
2023-11-12T05:41:45.997Z,94059.33
2023-11-12T05:42:49.422Z,94057.83
2023-11-12T05:43:53.386Z,94055.88
2023-11-12T05:44:57.059Z,94053.17
2023-11-12T05:46:00.716Z,94045.66
2023-11-12T05:47:05.651Z,94058.00
2023-11-12T05:48:11.228Z,94064.88
2023-11-12T05:49:14.685Z,94059.55
2023-11-12T05:50:18.581Z,94060.50
2023-11-12T05:51:21.873Z,94071.52
2023-11-12T05:52:25.408Z,94069.39
2023-11-12T05:53:28.720Z,94079.15
2023-11-12T05:54:32.556Z,94090.04
2023-11-12T05:55:36.055Z,94073.15
2023-11-12T05:56:39.721Z,94084.05
2023-11-12T05:57:43.839Z,94087.23
2023-11-12T05:58:47.888Z,94081.30
2023-11-12T05:59:51.550Z,94082.04
2023-11-12T06:00:57.306Z,94091.15
2023-11-12T06:02:00.449Z,94089.45
2023-11-12T06:03:04.091Z,94082.50
2023-11-12T06:04:07.856Z,94081.13
2023-11-12T06:05:11.297Z,94089.91
2023-11-12T06:06:15.089Z,94092.59
2023-11-12T06:07:19.233Z,94092.55
2023-11-12T06:08:23.090Z,94099.00
2023-11-12T06:09:27.230Z,94105.24
2023-11-12T06:10:32.018Z,94098.92
2023-11-12T06:11:39.338Z,94099.75
2023-11-12T06:12:43.129Z,94098.85
2023-11-12T06:13:46.211Z,94099.16
2023-11-12T06:14:49.745Z,94109.55
2023-11-12T06:15:53.282Z,94113.30
2023-11-12T06:16:57.262Z,94105.61
2023-11-12T06:18:00.882Z,94108.08
2023-11-12T06:19:04.879Z,94118.71
2023-11-12T06:20:11.771Z,94116.02
2023-11-12T06:21:15.228Z,94116.20
2023-11-12T06:22:18.767Z,94122.23
2023-11-12T06:23:22.154Z,94123.31
2023-11-12T06:24:25.658Z,94119.96
2023-11-12T06:25:29.374Z,94120.38
2023-11-12T06:26:33.147Z,94120.83
2023-11-12T06:27:37.165Z,94126.61
2023-11-12T06:28:41.927Z,94129.08
2023-11-12T06:29:47.011Z,94125.90
2023-11-12T06:30:52.070Z,94129.75
2023-11-12T06:31:55.582Z,94146.66
2023-11-12T06:33:01.977Z,94141.31
2023-11-12T06:34:06.329Z,94153.21
2023-11-12T06:35:11.268Z,94134.67
2023-11-12T06:36:17.032Z,94147.23
2023-11-12T06:37:20.374Z,94153.48
2023-11-12T06:38:24.234Z,94161.59
2023-11-12T06:39:28.111Z,94168.12
2023-11-12T06:40:32.168Z,94163.90
2023-11-12T06:41:36.261Z,94161.23
2023-11-12T06:42:43.580Z,94155.27
2023-11-12T06:43:47.386Z,94163.83
2023-11-12T06:44:51.399Z,94159.08
2023-11-12T06:45:55.805Z,94169.14
2023-11-12T06:46:59.331Z,94167.23
2023-11-12T06:48:03.422Z,94171.22
2023-11-12T06:49:07.339Z,94176.73
2023-11-12T06:50:14.507Z,94187.13
2023-11-12T06:51:24.822Z,94178.14
2023-11-12T06:52:28.573Z,94182.55
2023-11-12T06:53:32.101Z,94177.60
2023-11-12T06:54:35.679Z,94176.15
2023-11-12T06:55:40.391Z,94183.77
2023-11-12T06:56:43.979Z,94174.48
2023-11-12T06:57:48.638Z,94181.59
2023-11-12T06:58:52.772Z,94182.70
2023-11-12T06:59:56.867Z,94185.34
2023-11-12T07:01:00.219Z,94182.13
2023-11-12T07:02:04.546Z,94186.30
2023-11-12T07:03:08.066Z,94187.06
2023-11-12T07:04:11.829Z,94189.27
2023-11-12T07:05:17.712Z,94182.00
2023-11-12T07:06:21.527Z,94187.80
2023-11-12T07:07:25.605Z,94187.58
2023-11-12T07:08:33.722Z,94192.48
2023-11-12T07:09:37.243Z,94189.81
2023-11-12T07:10:40.649Z,94197.04
2023-11-12T07:11:44.771Z,94197.08
2023-11-12T07:12:48.692Z,94197.94
2023-11-12T07:13:52.371Z,94191.66
2023-11-12T07:14:56.758Z,94201.83
2023-11-12T07:16:00.267Z,94207.44
2023-11-12T07:17:04.328Z,94205.30
2023-11-12T07:18:08.311Z,94206.20
2023-11-12T07:19:14.112Z,94204.56
2023-11-12T07:20:18.092Z,94206.32
2023-11-12T07:21:30.865Z,94207.63
2023-11-12T07:22:36.693Z,94229.84
2023-11-12T07:23:40.232Z,94206.70
2023-11-12T07:24:44.357Z,94204.09
2023-11-12T07:25:48.353Z,94218.60
2023-11-12T07:26:51.862Z,94212.34
2023-11-12T07:27:56.067Z,94211.70
2023-11-12T07:28:59.798Z,94204.80
2023-11-12T07:30:04.031Z,94213.06
2023-11-12T07:31:10.268Z,94228.48
2023-11-12T07:32:13.924Z,94218.23
2023-11-12T07:33:17.399Z,94224.50
2023-11-12T07:34:21.143Z,94218.41
2023-11-12T07:35:26.077Z,94218.58
2023-11-12T07:36:29.834Z,94213.23
2023-11-12T07:37:33.618Z,94227.92
2023-11-12T07:38:37.908Z,94219.98
2023-11-12T07:39:41.457Z,94219.86
2023-11-12T07:40:45.081Z,94222.31
2023-11-12T07:41:48.467Z,94226.71
2023-11-12T07:42:53.456Z,94229.86
2023-11-12T07:43:57.151Z,94236.69
2023-11-12T07:45:06.977Z,94234.59
2023-11-12T07:46:16.522Z,94254.15
2023-11-12T07:47:19.906Z,94250.46
2023-11-12T07:48:23.701Z,94248.96
2023-11-12T07:49:27.433Z,94245.70
2023-11-12T07:50:31.193Z,94250.14
2023-11-12T07:51:35.967Z,94260.53
2023-11-12T07:52:42.255Z,94251.54
2023-11-12T07:53:45.368Z,94251.17
2023-11-12T07:54:48.915Z,94259.00
2023-11-12T07:55:52.974Z,94256.20
2023-11-12T07:56:56.546Z,94258.63
2023-11-12T07:58:00.036Z,94257.32
2023-11-12T07:59:04.254Z,94256.80
2023-11-12T08:00:14.478Z,94267.98
2023-11-12T08:01:18.461Z,94266.56
2023-11-12T08:02:23.845Z,94266.26
2023-11-12T08:03:27.417Z,94270.17
2023-11-12T08:04:31.061Z,94274.39
2023-11-12T08:05:35.649Z,94279.95
2023-11-12T08:06:38.979Z,94273.38
2023-11-12T08:07:42.785Z,94269.80
2023-11-12T08:08:46.272Z,94274.97
2023-11-12T08:09:51.001Z,94279.49
2023-11-12T08:10:55.121Z,94276.38
2023-11-12T08:11:58.689Z,94275.64
2023-11-12T08:13:02.134Z,94281.39
2023-11-12T08:14:05.675Z,94286.94
2023-11-12T08:15:13.282Z,94286.94
2023-11-12T08:16:16.572Z,94294.78
2023-11-12T08:17:20.515Z,94293.38
2023-11-12T08:18:24.992Z,94296.83
2023-11-12T08:19:28.342Z,94300.66
2023-11-12T08:20:31.880Z,94283.55
2023-11-12T08:21:35.961Z,94287.52
2023-11-12T08:22:40.061Z,94302.42
2023-11-12T08:23:43.493Z,94305.93
2023-11-12T08:24:47.576Z,94303.79
2023-11-12T08:25:51.592Z,94315.30
2023-11-12T08:26:56.044Z,94309.09
2023-11-12T08:27:59.778Z,94305.60
2023-11-12T08:29:03.386Z,94310.45
2023-11-12T08:30:10.269Z,94307.26
2023-11-12T08:31:13.605Z,94302.34
2023-11-12T08:32:16.882Z,94310.67
2023-11-12T08:33:20.474Z,94318.00
2023-11-12T08:34:24.870Z,94308.71
2023-11-12T08:35:30.743Z,94325.19
2023-11-12T08:36:35.728Z,94315.77
2023-11-12T08:37:41.884Z,94308.92
2023-11-12T08:38:45.657Z,94311.59
2023-11-12T08:39:49.512Z,94315.70
2023-11-12T08:40:53.021Z,94324.19
2023-11-12T08:41:56.554Z,94319.31
2023-11-12T08:43:00.759Z,94328.48
2023-11-12T08:44:04.803Z,94322.11
2023-11-12T08:45:10.634Z,94324.66
2023-11-12T08:46:16.315Z,94324.27
2023-11-12T08:47:20.514Z,94324.62
2023-11-12T08:48:32.216Z,94323.48
2023-11-12T08:49:35.890Z,94321.73
2023-11-12T08:50:40.388Z,94317.22
2023-11-12T08:51:43.946Z,94317.04
2023-11-12T08:52:47.702Z,94334.14
2023-11-12T08:53:51.051Z,94332.08
2023-11-12T08:54:55.125Z,94332.74
2023-11-12T08:55:58.476Z,94326.94
2023-11-12T08:57:04.369Z,94323.52
2023-11-12T08:58:09.530Z,94330.48
2023-11-12T08:59:13.779Z,94342.71
2023-11-12T09:00:21.550Z,94322.86
2023-11-12T09:01:26.580Z,94333.67
2023-11-12T09:02:29.962Z,94340.84
2023-11-12T09:03:33.477Z,94345.50
2023-11-12T09:04:38.142Z,94341.90
2023-11-12T09:05:41.825Z,94344.05
2023-11-12T09:06:45.416Z,94341.77
2023-11-12T09:07:50.591Z,94344.13
2023-11-12T09:08:56.010Z,94341.61
2023-11-12T09:10:00.318Z,94343.95
2023-11-12T09:11:06.258Z,94358.34
2023-11-12T09:12:09.984Z,94357.29
2023-11-12T09:13:14.333Z,94342.11
2023-11-12T09:14:18.850Z,94357.30
2023-11-12T09:15:22.324Z,94354.31
2023-11-12T09:16:27.095Z,94351.27
2023-11-12T09:17:30.681Z,94354.25
2023-11-12T09:18:34.614Z,94362.05
2023-11-12T09:19:37.962Z,94356.71
2023-11-12T09:20:41.444Z,94381.16
2023-11-12T09:21:45.649Z,94367.17
2023-11-12T09:22:50.930Z,94364.25
2023-11-12T09:23:56.002Z,94364.17
2023-11-12T09:25:08.888Z,94369.27
2023-11-12T09:26:22.159Z,94372.08
2023-11-12T09:27:28.103Z,94368.06
2023-11-12T09:28:32.124Z,94373.63
2023-11-12T09:29:38.136Z,94362.11
2023-11-12T09:30:49.682Z,94364.64
2023-11-12T09:32:01.202Z,94378.52
2023-11-12T09:33:07.266Z,94367.55
2023-11-12T09:34:10.729Z,94364.94
2023-11-12T09:35:17.251Z,94377.88
2023-11-12T09:36:20.758Z,94385.87
2023-11-12T09:37:25.027Z,94373.04
2023-11-12T09:38:28.341Z,94374.79
2023-11-12T09:39:33.577Z,94366.60
2023-11-12T09:40:37.874Z,94385.73
2023-11-12T09:41:47.079Z,94377.73
2023-11-12T09:42:54.373Z,94376.02
2023-11-12T09:44:04.136Z,94382.75
2023-11-12T09:45:10.390Z,94393.40
2023-11-12T09:46:14.975Z,94381.98
2023-11-12T09:47:33.042Z,94381.22
2023-11-12T09:48:39.898Z,94383.77
2023-11-12T09:49:45.202Z,94388.02
2023-11-12T09:50:49.770Z,94389.38
2023-11-12T09:51:53.850Z,94390.02
2023-11-12T09:53:04.561Z,94391.25
2023-11-12T09:54:12.404Z,94389.52
2023-11-12T09:55:17.655Z,94397.67
2023-11-12T09:56:26.056Z,94391.23
2023-11-12T09:57:30.007Z,94388.67
2023-11-12T09:58:33.603Z,94388.35
2023-11-12T09:59:37.456Z,94399.63
2023-11-12T10:00:41.181Z,94404.63
2023-11-12T10:01:48.942Z,94399.33
2023-11-12T10:02:53.540Z,94401.23
2023-11-12T10:03:57.222Z,94393.63
2023-11-12T10:05:10.721Z,94402.23
2023-11-12T10:06:14.575Z,94412.55
2023-11-12T10:07:19.300Z,94401.77
2023-11-12T10:08:24.781Z,94409.33
2023-11-12T10:09:29.495Z,94404.08
2023-11-12T10:10:34.856Z,94412.16
2023-11-12T10:11:39.763Z,94420.54
2023-11-12T10:12:46.604Z,94418.94
2023-11-12T10:13:52.549Z,94415.94
2023-11-12T10:15:03.016Z,94410.56
2023-11-12T10:16:23.929Z,94412.36
2023-11-12T10:17:28.125Z,94429.27
2023-11-12T10:18:31.881Z,94406.22
2023-11-12T10:19:36.369Z,94405.33
2023-11-12T10:20:42.876Z,94400.65
2023-11-12T10:21:57.534Z,94416.88
2023-11-12T10:23:02.546Z,94409.25
2023-11-12T10:24:11.331Z,94423.14
2023-11-12T10:25:35.269Z,94411.39
2023-11-12T10:26:39.223Z,94411.67
2023-11-12T10:27:57.447Z,94426.98
2023-11-12T10:29:01.079Z,94425.42
2023-11-12T10:30:23.676Z,94431.01
2023-11-12T10:31:38.078Z,94420.87
2023-11-12T10:32:41.572Z,94415.18
2023-11-12T10:34:01.361Z,94422.62
2023-11-12T10:35:06.560Z,94422.86
2023-11-12T10:36:14.847Z,94423.40
2023-11-12T10:37:20.116Z,94436.47
2023-11-12T10:38:24.141Z,94450.15
2023-11-12T10:39:34.618Z,94434.55
2023-11-12T10:40:38.212Z,94418.41
2023-11-12T10:41:41.332Z,94429.64
2023-11-12T10:42:44.878Z,94427.31
2023-11-12T10:44:00.176Z,94432.98
2023-11-12T10:45:07.807Z,94433.22
2023-11-12T10:46:12.727Z,94437.38
2023-11-12T10:47:21.509Z,94435.72
2023-11-12T10:48:32.321Z,94428.77
2023-11-12T10:49:40.163Z,94437.01
2023-11-12T10:50:45.394Z,94422.02
2023-11-12T10:51:51.684Z,94425.00
2023-11-12T10:52:56.752Z,94426.58
2023-11-12T10:54:03.563Z,94432.97
2023-11-12T10:55:10.895Z,94436.80
2023-11-12T10:56:16.603Z,94441.60
2023-11-12T10:57:22.918Z,94436.02
2023-11-12T10:58:29.098Z,94441.27
2023-11-12T10:59:38.174Z,94444.00
2023-11-12T11:00:41.809Z,94439.74
2023-11-12T11:01:45.597Z,94447.09
2023-11-12T11:02:50.043Z,94455.57
2023-11-12T11:03:56.346Z,94447.98
2023-11-12T11:05:01.263Z,94453.19
2023-11-12T11:06:09.223Z,94447.61
2023-11-12T11:07:13.144Z,94451.52
2023-11-12T11:08:16.732Z,94452.67
2023-11-12T11:09:23.175Z,94459.25
2023-11-12T11:10:28.263Z,94465.73
2023-11-12T11:11:33.999Z,94462.89
2023-11-12T11:12:38.617Z,94465.15
2023-11-12T11:13:43.201Z,94468.40
2023-11-12T11:14:47.042Z,94465.84
2023-11-12T11:15:55.814Z,94472.19
2023-11-12T11:16:59.471Z,94470.20
2023-11-12T11:18:05.902Z,94500.33
2023-11-12T11:19:10.417Z,94485.08
2023-11-12T11:20:14.357Z,94475.67
2023-11-12T11:21:19.642Z,94492.25
2023-11-12T11:22:26.020Z,94483.99
2023-11-12T11:23:53.617Z,94482.89
2023-11-12T11:24:59.476Z,94486.88
2023-11-12T11:26:39.421Z,94485.59
2023-11-12T11:27:46.444Z,94501.36
2023-11-12T11:29:15.448Z,94493.34
2023-11-12T11:30:20.923Z,94502.27
2023-11-12T11:31:24.498Z,94517.65
2023-11-12T11:32:28.644Z,94506.34
2023-11-12T11:33:48.176Z,94499.89
2023-11-12T11:34:54.322Z,94506.70
2023-11-12T11:36:09.020Z,94507.16
2023-11-12T11:37:13.112Z,94530.48
2023-11-12T11:38:18.172Z,94505.02
2023-11-12T11:39:27.618Z,94502.67
2023-11-12T11:40:36.422Z,94503.66
2023-11-12T11:42:13.899Z,94515.98
2023-11-12T11:43:32.405Z,94509.91
2023-11-12T11:44:49.889Z,94500.59
2023-11-12T11:46:18.086Z,94518.10
2023-11-12T11:47:26.500Z,94508.91
2023-11-12T11:48:30.074Z,94511.16
2023-11-12T11:49:33.911Z,94513.64
2023-11-12T11:50:46.546Z,94512.58
2023-11-12T11:51:52.157Z,94510.76
2023-11-12T11:52:56.258Z,94520.16
2023-11-12T11:54:05.431Z,94520.73
2023-11-12T11:55:23.067Z,94528.46
2023-11-12T11:56:27.569Z,94522.88
2023-11-12T11:57:32.263Z,94518.67
2023-11-12T11:58:46.510Z,94521.38
2023-11-12T11:59:51.345Z,94522.29
2023-11-12T12:01:01.317Z,94518.48
2023-11-12T12:02:06.954Z,94527.30
2023-11-12T12:03:21.984Z,94522.89
2023-11-12T12:04:28.904Z,94523.58
2023-11-12T12:05:34.388Z,94525.72
2023-11-12T12:06:45.270Z,94517.27
2023-11-12T12:08:00.766Z,94522.87
2023-11-12T12:09:10.156Z,94527.28
2023-11-12T12:10:28.975Z,94537.71
2023-11-12T12:11:34.497Z,94539.23
2023-11-12T12:12:40.287Z,94532.06
2023-11-12T12:13:56.822Z,94547.83
2023-11-12T12:15:00.124Z,94531.74
2023-11-12T12:16:05.700Z,94528.41
2023-11-12T12:17:09.705Z,94533.11
2023-11-12T12:18:24.292Z,94542.64
2023-11-12T12:19:27.852Z,94535.08
2023-11-12T12:20:39.987Z,94530.77
2023-11-12T12:21:49.774Z,94526.64
2023-11-12T12:22:55.766Z,94522.61
2023-11-12T12:23:59.352Z,94530.09
2023-11-12T12:25:04.819Z,94521.41
2023-11-12T12:26:08.393Z,94521.80
2023-11-12T12:27:13.437Z,94529.08
2023-11-12T12:28:21.409Z,94519.50
2023-11-12T12:29:26.533Z,94532.33
2023-11-12T12:30:30.680Z,94551.09
2023-11-12T12:31:34.811Z,94542.84
2023-11-12T12:32:38.519Z,94528.73
2023-11-12T12:33:43.337Z,94542.71
2023-11-12T12:34:58.527Z,94528.34
2023-11-12T12:36:01.249Z,94529.42
2023-11-12T12:37:10.218Z,94532.27
2023-11-12T12:38:13.901Z,94530.25
2023-11-12T12:39:17.494Z,94530.23
2023-11-12T12:40:28.525Z,94530.06
2023-11-12T12:41:33.486Z,94538.94
2023-11-12T12:42:39.461Z,94543.78
2023-11-12T12:43:57.432Z,94542.40
2023-11-12T12:45:01.454Z,94542.36
2023-11-12T12:46:05.962Z,94543.27
2023-11-12T12:47:10.554Z,94552.59